Time;durP1;ratioP1;P1;durP2;ratioP2;P2;SDS_P1;SDS_P2;PMS_P1;PMS_P2;Temp;Humidity;BMP_temperature;BMP_pressure;BME280_temperature;BME280_humidity;BME280_pressure;Samples;Min_cycle;Max_cycle;Signal;HPM_P1;HPM_P2
2022/11/15 00:01:48;;;;;;;10.38;7.78;;;;;;;;;;4774913;29;20043;-73
2022/11/15 00:04:34;;;;;;;8.35;7.50;;;;;;;;;;4778368;29;20043;-74
2022/11/15 00:07:19;;;;;;;7.72;6.80;;;;;;;;;;4770493;29;20652;-74
2022/11/15 00:10:25;;;;;;;9.43;8.00;;;;;;;;;;4778271;29;20043;-74
2022/11/15 00:13:12;;;;;;;10.27;7.47;;;;;;;;;;4785667;29;20107;-74
2022/11/15 00:15:59;;;;;;;8.45;7.53;;;;;;;;;;4786218;29;20085;-74
2022/11/15 00:18:47;;;;;;;8.88;7.53;;;;;;;;;;4786617;29;20071;-73
2022/11/15 00:21:36;;;;;;;12.55;7.50;;;;;;;;;;4781093;29;20126;-74
2022/11/15 00:24:21;;;;;;;8.65;7.80;;;;;;;;;;4785301;29;20154;-73
2022/11/15 00:27:07;;;;;;;9.18;8.13;;;;;;;;;;4792655;29;20047;-73
2022/11/15 00:29:54;;;;;;;8.40;7.53;;;;;;;;;;4784827;29;20054;-74
2022/11/15 00:32:40;;;;;;;8.27;7.45;;;;;;;;;;4781598;29;20126;-74
2022/11/15 00:35:26;;;;;;;8.27;6.63;;;;;;;;;;4787305;29;20508;-75
2022/11/15 00:38:12;;;;;;;8.15;6.68;;;;;;;;;;4781671;29;20039;-74
2022/11/15 00:40:58;;;;;;;9.23;7.00;;;;;;;;;;4784399;29;20497;-74
2022/11/15 00:43:44;;;;;;;7.30;6.50;;;;;;;;;;4780006;29;20047;-73
2022/11/15 00:46:30;;;;;;;6.95;6.25;;;;;;;;;;4772204;29;20058;-75
2022/11/15 00:49:16;;;;;;;8.15;7.35;;;;;;;;;;4784540;29;20380;-74
2022/11/15 00:52:02;;;;;;;7.20;6.50;;;;;;;;;;4787117;29;20307;-74
2022/11/15 00:54:47;;;;;;;8.43;6.60;;;;;;;;;;4788812;29;20081;-74
2022/11/15 00:57:36;;;;;;;7.18;6.40;;;;;;;;;;4783407;29;20039;-74
2022/11/15 01:00:22;;;;;;;8.95;6.93;;;;;;;;;;4782187;29;20473;-74
2022/11/15 01:03:20;;;;;;;7.45;6.75;;;;;;;;;;4779437;29;20121;-74
2022/11/15 01:06:07;;;;;;;8.77;7.43;;;;;;;;;;4797447;29;20457;-73
2022/11/15 01:08:53;;;;;;;7.47;6.68;;;;;;;;;;4786389;29;20550;-73
2022/11/15 01:11:39;;;;;;;7.10;6.40;;;;;;;;;;4778481;29;20055;-74
2022/11/15 01:14:26;;;;;;;9.18;6.57;;;;;;;;;;4796178;29;20057;-74
2022/11/15 01:17:11;;;;;;;7.78;6.95;;;;;;;;;;4785421;29;20555;-73
2022/11/15 01:20:00;;;;;;;8.57;6.68;;;;;;;;;;4776501;29;20054;-74
2022/11/15 01:22:46;;;;;;;7.63;6.82;;;;;;;;;;4782479;29;20051;-73
2022/11/15 01:25:32;;;;;;;8.88;6.00;;;;;;;;;;4783076;29;20508;-73
2022/11/15 01:28:18;;;;;;;7.03;6.32;;;;;;;;;;4789394;29;20042;-73
2022/11/15 01:31:05;;;;;;;7.90;7.20;;;;;;;;;;4780161;29;20122;-75
2022/11/15 01:33:51;;;;;;;7.07;6.10;;;;;;;;;;4780251;29;20043;-74
2022/11/15 01:36:37;;;;;;;8.18;6.38;;;;;;;;;;4786485;29;20043;-74
2022/11/15 01:39:23;;;;;;;7.78;7.07;;;;;;;;;;4784111;29;20063;-74
2022/11/15 01:42:12;;;;;;;7.97;6.57;;;;;;;;;;4782226;29;20054;-74
2022/11/15 01:44:58;;;;;;;11.32;7.15;;;;;;;;;;4781803;29;20074;-74
2022/11/15 01:47:47;;;;;;;8.15;7.32;;;;;;;;;;4782069;29;20437;-74
2022/11/15 01:50:34;;;;;;;8.55;7.05;;;;;;;;;;4798475;29;20431;-74
2022/11/15 01:53:22;;;;;;;8.30;7.40;;;;;;;;;;4788326;29;20050;-74
2022/11/15 01:56:10;;;;;;;8.18;7.13;;;;;;;;;;4786290;29;20047;-74
2022/11/15 01:59:22;;;;;;;7.70;6.30;;;;;;;;;;4789027;29;20766;-75
2022/11/15 02:02:08;;;;;;;6.88;5.95;;;;;;;;;;4785449;29;20529;-74
2022/11/15 02:04:54;;;;;;;8.73;7.22;;;;;;;;;;4779205;29;20052;-74
2022/11/15 02:07:41;;;;;;;7.90;7.10;;;;;;;;;;4776989;30;20052;-74
2022/11/15 02:10:28;;;;;;;7.28;6.57;;;;;;;;;;4775425;29;20043;-74
2022/11/15 02:13:15;;;;;;;7.40;6.60;;;;;;;;;;4782545;29;20047;-74
2022/11/15 02:16:14;;;;;;;8.60;7.05;;;;;;;;;;4791655;29;20389;-74
2022/11/15 02:19:05;;;;;;;8.63;6.88;;;;;;;;;;4777984;29;20043;-74
2022/11/15 02:22:01;;;;;;;7.13;5.95;;;;;;;;;;4778906;29;20516;-73
2022/11/15 02:25:05;;;;;;;8.57;7.25;;;;;;;;;;4780878;29;20051;-73
2022/11/15 02:27:51;;;;;;;6.97;6.18;;;;;;;;;;4782815;29;20051;-75
2022/11/15 02:30:37;;;;;;;9.55;7.95;;;;;;;;;;4792188;29;20082;-74
2022/11/15 02:33:26;;;;;;;8.57;7.68;;;;;;;;;;4774163;29;20047;-74
2022/11/15 02:36:18;;;;;;;10.32;8.10;;;;;;;;;;4786386;29;20043;-74
2022/11/15 02:39:09;;;;;;;8.20;7.05;;;;;;;;;;4780566;29;20527;-74
2022/11/15 02:42:02;;;;;;;8.52;7.13;;;;;;;;;;4792671;29;20046;-74
2022/11/15 02:44:49;;;;;;;7.68;6.82;;;;;;;;;;4778027;29;20051;-74
2022/11/15 02:47:38;;;;;;;8.93;6.90;;;;;;;;;;4791459;29;20127;-74
2022/11/15 02:50:26;;;;;;;8.07;7.28;;;;;;;;;;4787786;29;20051;-74
2022/11/15 02:53:12;;;;;;;8.43;7.53;;;;;;;;;;4788602;29;20532;-74
2022/11/15 02:55:58;;;;;;;6.65;6.05;;;;;;;;;;4781602;29;20404;-74
2022/11/15 02:59:02;;;;;;;7.80;6.35;;;;;;;;;;4780851;29;20412;-74
2022/11/15 03:02:11;;;;;;;11.27;7.93;;;;;;;;;;4781036;29;20050;-74
2022/11/15 03:04:59;;;;;;;8.85;7.53;;;;;;;;;;4776309;29;20055;-74
2022/11/15 03:07:52;;;;;;;8.75;7.85;;;;;;;;;;4778170;29;20051;-74
2022/11/15 03:11:03;;;;;;;7.40;6.68;;;;;;;;;;4778456;29;20047;-73
2022/11/15 03:14:15;;;;;;;11.68;8.20;;;;;;;;;;4783849;29;20177;-75
2022/11/15 03:17:08;;;;;;;8.15;7.15;;;;;;;;;;4768209;29;20082;-74
2022/11/15 03:19:55;;;;;;;10.15;7.20;;;;;;;;;;4783373;29;20130;-74
2022/11/15 03:22:44;;;;;;;9.60;8.27;;;;;;;;;;4787021;29;20408;-74
2022/11/15 03:25:30;;;;;;;8.73;7.82;;;;;;;;;;4777704;29;20047;-74
2022/11/15 03:28:19;;;;;;;7.90;7.15;;;;;;;;;;4787935;29;20036;-74
2022/11/15 03:31:46;;;;;;;9.82;8.18;;;;;;;;;;4786223;29;20135;-75
2022/11/15 03:34:14;;;;;;;9.88;8.02;;;;;;;;;;4785030;29;20090;-73
2022/11/15 03:37:00;;;;;;;11.45;7.93;;;;;;;;;;4778584;29;20039;-73
2022/11/15 03:39:46;;;;;;;12.40;8.57;;;;;;;;;;4782396;29;20078;-73
2022/11/15 03:42:44;;;;;;;7.63;6.82;;;;;;;;;;4788026;29;20074;-74
2022/11/15 03:45:34;;;;;;;13.25;9.30;;;;;;;;;;4787876;29;20034;-73
2022/11/15 03:48:25;;;;;;;12.13;8.98;;;;;;;;;;4799279;29;20273;-74
2022/11/15 03:51:11;;;;;;;8.73;7.07;;;;;;;;;;4784941;29;20119;-74
2022/11/15 03:53:57;;;;;;;9.45;6.93;;;;;;;;;;4789670;29;20556;-74
2022/11/15 03:56:43;;;;;;;12.80;7.40;;;;;;;;;;4779175;29;20055;-75
2022/11/15 03:59:29;;;;;;;13.15;7.78;;;;;;;;;;4782218;29;20059;-74
2022/11/15 04:02:15;;;;;;;10.18;7.50;;;;;;;;;;4791318;29;20074;-73
2022/11/15 04:05:00;;;;;;;9.82;7.38;;;;;;;;;;4783226;29;20032;-74
2022/11/15 04:07:46;;;;;;;12.60;7.25;;;;;;;;;;4787916;29;20062;-74
2022/11/15 04:10:32;;;;;;;7.80;6.75;;;;;;;;;;4789413;29;20047;-74
2022/11/15 04:13:19;;;;;;;8.85;6.95;;;;;;;;;;4782107;29;20043;-74
2022/11/15 04:16:05;;;;;;;11.27;7.63;;;;;;;;;;4785009;29;20053;-74
2022/11/15 04:24:11;;;;;;;10.77;6.60;;;;;;;;;;4782463;29;20063;-74
2022/11/15 04:25:18;;;;;;;9.40;7.10;;;;;;;;;;4750012;30;20055;-74
2022/11/15 04:28:09;;;;;;;7.50;6.68;;;;;;;;;;4783569;29;20055;-74
2022/11/15 04:30:54;;;;;;;14.82;7.85;;;;;;;;;;4780134;29;20055;-74
2022/11/15 04:33:40;;;;;;;14.23;7.03;;;;;;;;;;4789363;29;20043;-74
2022/11/15 04:39:34;;;;;;;8.00;6.95;;;;;;;;;;4781639;29;20047;-73
2022/11/15 04:42:20;;;;;;;16.48;6.95;;;;;;;;;;4780464;29;20061;-73
2022/11/15 04:45:06;;;;;;;9.07;7.43;;;;;;;;;;4782198;29;20039;-73
2022/11/15 04:47:52;;;;;;;9.43;7.80;;;;;;;;;;4782861;29;20123;-74
2022/11/15 04:50:38;;;;;;;6.72;6.03;;;;;;;;;;4785323;29;20142;-74
2022/11/15 04:53:24;;;;;;;7.47;6.57;;;;;;;;;;4784967;29;20058;-74
2022/11/15 04:56:10;;;;;;;10.82;7.38;;;;;;;;;;4778494;29;20051;-74
2022/11/15 04:58:55;;;;;;;7.65;6.93;;;;;;;;;;4789691;29;20051;-74
2022/11/15 05:01:41;;;;;;;11.00;7.93;;;;;;;;;;4776423;29;20055;-75
2022/11/15 05:04:29;;;;;;;8.88;7.53;;;;;;;;;;4794290;29;20066;-74
2022/11/15 05:07:15;;;;;;;17.67;8.00;;;;;;;;;;4786138;29;20046;-74
2022/11/15 05:10:01;;;;;;;9.48;7.72;;;;;;;;;;4785332;29;21506;-74
2022/11/15 05:12:47;;;;;;;14.02;8.05;;;;;;;;;;4780207;29;20051;-74
2022/11/15 05:15:33;;;;;;;10.07;7.47;;;;;;;;;;4793337;29;20047;-74
2022/11/15 05:18:19;;;;;;;10.23;7.90;;;;;;;;;;4784342;29;20043;-74
2022/11/15 05:21:09;;;;;;;12.70;8.73;;;;;;;;;;4776278;29;20115;-74
2022/11/15 05:23:56;;;;;;;19.05;8.77;;;;;;;;;;4782115;29;20523;-74
2022/11/15 05:26:41;;;;;;;9.88;8.60;;;;;;;;;;4783430;29;20050;-74
2022/11/15 05:29:29;;;;;;;15.32;7.68;;;;;;;;;;4781084;29;20364;-74
2022/11/15 05:32:16;;;;;;;8.90;6.97;;;;;;;;;;4778456;29;20039;-70
2022/11/15 05:35:06;;;;;;;8.63;7.13;;;;;;;;;;4771219;29;20055;-74
2022/11/15 05:37:52;;;;;;;8.48;7.57;;;;;;;;;;4779075;29;20437;-76
2022/11/15 05:40:39;;;;;;;9.77;7.18;;;;;;;;;;4781913;29;20512;-74
2022/11/15 05:43:25;;;;;;;11.25;8.35;;;;;;;;;;4783153;29;20050;-73
2022/11/15 05:46:11;;;;;;;16.92;8.10;;;;;;;;;;4767397;30;20043;-73
2022/11/15 05:48:58;;;;;;;11.02;8.02;;;;;;;;;;4778877;30;20051;-75
2022/11/15 05:51:44;;;;;;;12.23;7.93;;;;;;;;;;4779008;29;20047;-74
2022/11/15 05:54:31;;;;;;;12.90;8.38;;;;;;;;;;4786864;29;20055;-74
2022/11/15 05:57:21;;;;;;;7.75;7.03;;;;;;;;;;4779035;29;20067;-74
2022/11/15 06:00:08;;;;;;;7.20;6.50;;;;;;;;;;4777026;29;20423;-74
2022/11/15 06:02:54;;;;;;;9.20;7.93;;;;;;;;;;4780458;29;20133;-74
2022/11/15 06:05:41;;;;;;;8.70;7.63;;;;;;;;;;4778215;29;20079;-74
2022/11/15 06:08:27;;;;;;;10.82;7.32;;;;;;;;;;4774569;29;20051;-76
2022/11/15 06:11:13;;;;;;;8.23;7.35;;;;;;;;;;4781827;29;20529;-75
2022/11/15 06:13:59;;;;;;;8.48;7.25;;;;;;;;;;4774282;29;20039;-74
2022/11/15 06:16:44;;;;;;;10.18;7.47;;;;;;;;;;4782853;29;20382;-73
2022/11/15 06:19:32;;;;;;;10.30;6.65;;;;;;;;;;4788599;29;20054;-71
2022/11/15 06:22:18;;;;;;;14.23;7.15;;;;;;;;;;4780705;29;20412;-74
2022/11/15 06:25:04;;;;;;;9.88;7.35;;;;;;;;;;4769720;29;20393;-74
2022/11/15 06:27:52;;;;;;;8.35;6.00;;;;;;;;;;4774140;29;20048;-74
2022/11/15 06:30:38;;;;;;;8.20;7.40;;;;;;;;;;4779753;29;20046;-73
2022/11/15 06:33:24;;;;;;;14.10;6.47;;;;;;;;;;4788432;29;20063;-73
2022/11/15 06:36:13;;;;;;;13.13;6.57;;;;;;;;;;4782714;29;20043;-73
2022/11/15 06:39:03;;;;;;;14.77;6.82;;;;;;;;;;4790642;29;20050;-74
2022/11/15 06:41:49;;;;;;;8.90;7.50;;;;;;;;;;4775652;29;20497;-75
2022/11/15 06:44:35;;;;;;;9.18;7.82;;;;;;;;;;4774295;29;20535;-74
2022/11/15 06:47:21;;;;;;;12.80;7.38;;;;;;;;;;4765216;30;20428;-73
2022/11/15 06:50:07;;;;;;;9.98;8.35;;;;;;;;;;4776864;29;20047;-73
2022/11/15 06:52:54;;;;;;;7.70;6.95;;;;;;;;;;4768825;29;20043;-74
2022/11/15 06:55:40;;;;;;;9.27;8.38;;;;;;;;;;4767406;30;20255;-74
2022/11/15 06:58:26;;;;;;;11.15;7.75;;;;;;;;;;4776649;29;20085;-74
2022/11/15 07:01:12;;;;;;;10.20;7.38;;;;;;;;;;4784956;29;20126;-74
2022/11/15 07:03:59;;;;;;;10.05;7.63;;;;;;;;;;4779811;29;20052;-73
2022/11/15 07:06:47;;;;;;;11.05;9.13;;;;;;;;;;4783047;30;20047;-74
2022/11/15 07:09:33;;;;;;;9.85;8.07;;;;;;;;;;4766465;30;20078;-74
2022/11/15 07:12:19;;;;;;;12.65;10.52;;;;;;;;;;4763908;30;20047;-75
2022/11/15 07:15:05;;;;;;;12.13;10.07;;;;;;;;;;4763845;30;20051;-74
2022/11/15 07:17:51;;;;;;;10.07;9.07;;;;;;;;;;4764289;30;20047;-74
2022/11/15 07:20:37;;;;;;;11.77;8.70;;;;;;;;;;4764275;30;20064;-73
2022/11/15 07:23:22;;;;;;;8.77;7.88;;;;;;;;;;4771380;30;20188;-74
2022/11/15 07:26:08;;;;;;;10.00;8.90;;;;;;;;;;4785884;30;20098;-74
2022/11/15 07:28:55;;;;;;;9.85;8.38;;;;;;;;;;4776454;30;20056;-75
2022/11/15 07:31:41;;;;;;;10.32;7.85;;;;;;;;;;4773668;30;20047;-75
2022/11/15 07:34:27;;;;;;;16.85;9.68;;;;;;;;;;4786505;30;20076;-74
2022/11/15 07:37:13;;;;;;;11.35;8.15;;;;;;;;;;4785719;30;20239;-74
2022/11/15 07:40:00;;;;;;;9.90;7.95;;;;;;;;;;4777641;30;20035;-74
2022/11/15 07:42:55;;;;;;;11.95;8.43;;;;;;;;;;4772514;30;20511;-74
2022/11/15 07:45:45;;;;;;;17.70;8.73;;;;;;;;;;4771916;30;20054;-74
2022/11/15 07:48:31;;;;;;;11.85;7.47;;;;;;;;;;4767682;30;20055;-74
2022/11/15 07:51:29;;;;;;;9.98;8.77;;;;;;;;;;4768213;30;20056;-74
2022/11/15 07:54:15;;;;;;;11.55;10.15;;;;;;;;;;4767607;30;20050;-74
2022/11/15 07:57:01;;;;;;;13.60;9.15;;;;;;;;;;4775891;30;20047;-74
2022/11/15 07:59:52;;;;;;;9.55;8.60;;;;;;;;;;4772739;30;20756;-74
2022/11/15 08:02:38;;;;;;;10.98;8.23;;;;;;;;;;4770676;30;20063;-74
2022/11/15 08:05:24;;;;;;;9.93;8.93;;;;;;;;;;4771429;30;20058;-73
2022/11/15 08:08:11;;;;;;;8.32;7.55;;;;;;;;;;4777301;30;20592;-74
2022/11/15 08:11:00;;;;;;;9.60;8.70;;;;;;;;;;4777064;30;20119;-74
2022/11/15 08:13:45;;;;;;;11.63;8.38;;;;;;;;;;4786926;29;20121;-74
2022/11/15 08:16:32;;;;;;;9.43;8.52;;;;;;;;;;4770139;30;20048;-74
2022/11/15 08:19:17;;;;;;;9.38;8.48;;;;;;;;;;4774428;30;20046;-74
2022/11/15 08:22:03;;;;;;;11.18;9.80;;;;;;;;;;4775780;30;20044;-74
2022/11/15 08:24:49;;;;;;;12.10;9.95;;;;;;;;;;4771146;30;20047;-74
2022/11/15 08:27:35;;;;;;;12.18;8.15;;;;;;;;;;4777133;30;20047;-74
2022/11/15 08:30:21;;;;;;;12.55;9.98;;;;;;;;;;4773541;30;20063;-73
2022/11/15 08:33:10;;;;;;;9.77;8.77;;;;;;;;;;4776065;30;20051;-74
2022/11/15 08:35:57;;;;;;;11.63;10.52;;;;;;;;;;4768371;30;20333;-73
2022/11/15 08:38:43;;;;;;;10.52;8.82;;;;;;;;;;4766240;30;20102;-74
2022/11/15 08:41:31;;;;;;;17.23;13.70;;;;;;;;;;4776860;30;20055;-74
2022/11/15 08:44:17;;;;;;;14.35;9.05;;;;;;;;;;4772376;30;20139;-74
2022/11/15 08:47:03;;;;;;;13.18;9.35;;;;;;;;;;4782976;30;20054;-75
2022/11/15 08:49:48;;;;;;;11.13;9.85;;;;;;;;;;4782964;30;20188;-74
2022/11/15 08:52:34;;;;;;;10.32;9.32;;;;;;;;;;4774114;30;20523;-74
2022/11/15 08:55:20;;;;;;;10.68;9.07;;;;;;;;;;4774024;30;20413;-74
2022/11/15 08:58:09;;;;;;;10.63;9.52;;;;;;;;;;4774458;30;20112;-74
2022/11/15 09:00:55;;;;;;;9.77;8.55;;;;;;;;;;4771802;30;20052;-74
2022/11/15 09:03:41;;;;;;;10.10;8.75;;;;;;;;;;4774124;30;20110;-74
2022/11/15 09:06:27;;;;;;;11.35;9.45;;;;;;;;;;4788545;29;20131;-74
2022/11/15 09:09:13;;;;;;;10.02;9.05;;;;;;;;;;4773370;30;20066;-75
2022/11/15 09:12:01;;;;;;;11.05;10.05;;;;;;;;;;4775531;30;20650;-74
2022/11/15 09:14:47;;;;;;;10.00;8.25;;;;;;;;;;4782670;30;20742;-73
2022/11/15 09:17:33;;;;;;;12.52;10.02;;;;;;;;;;4780954;30;20051;-74
2022/11/15 09:20:19;;;;;;;11.23;9.95;;;;;;;;;;4774013;30;20039;-73
2022/11/15 09:23:05;;;;;;;10.10;9.10;;;;;;;;;;4782237;29;20043;-74
2022/11/15 09:25:52;;;;;;;10.02;8.98;;;;;;;;;;4783812;30;20083;-74
2022/11/15 09:28:41;;;;;;;10.60;9.60;;;;;;;;;;4781970;30;20220;-74
2022/11/15 09:31:27;;;;;;;11.23;9.88;;;;;;;;;;4773160;30;20192;-73
2022/11/15 09:34:13;;;;;;;11.80;9.73;;;;;;;;;;4773352;29;20059;-73
2022/11/15 09:36:59;;;;;;;11.80;10.40;;;;;;;;;;4780620;29;20044;-74
2022/11/15 09:39:44;;;;;;;12.63;10.90;;;;;;;;;;4786961;29;20402;-74
2022/11/15 09:42:49;;;;;;;11.25;10.25;;;;;;;;;;4783303;29;20135;-73
2022/11/15 09:45:38;;;;;;;12.15;10.95;;;;;;;;;;4770254;29;20636;-73
2022/11/15 09:48:49;;;;;;;9.82;8.90;;;;;;;;;;4772149;29;20051;-73
2022/11/15 09:51:46;;;;;;;10.25;9.25;;;;;;;;;;4782463;29;20058;-73
2022/11/15 09:54:30;;;;;;;10.80;9.70;;;;;;;;;;4769179;29;20067;-74
2022/11/15 09:57:30;;;;;;;12.43;10.82;;;;;;;;;;4772005;29;20048;-74
2022/11/15 10:00:21;;;;;;;10.50;9.43;;;;;;;;;;4780494;29;20593;-73
2022/11/15 10:03:15;;;;;;;10.93;9.35;;;;;;;;;;4778407;29;20055;-74
2022/11/15 10:05:44;;;;;;;10.50;9.40;;;;;;;;;;4775520;29;20483;-73
2022/11/15 10:08:21;;;;;;;11.75;10.55;;;;;;;;;;4773124;29;20535;-74
2022/11/15 10:10:50;;;;;;;11.80;10.60;;;;;;;;;;4772813;29;20480;-74
2022/11/15 10:13:40;;;;;;;13.48;10.32;;;;;;;;;;4772620;29;20050;-74
2022/11/15 10:16:23;;;;;;;10.88;9.75;;;;;;;;;;4769430;29;20142;-75
2022/11/15 10:19:13;;;;;;;11.50;10.40;;;;;;;;;;4770948;29;20067;-74
2022/11/15 10:21:41;;;;;;;10.88;9.93;;;;;;;;;;4772569;29;20054;-74
2022/11/15 10:24:11;;;;;;;11.27;9.77;;;;;;;;;;4768981;29;20082;-72
2022/11/15 10:26:38;;;;;;;10.90;9.95;;;;;;;;;;4770936;29;20054;-73
2022/11/15 10:29:06;;;;;;;13.25;12.00;;;;;;;;;;4764949;29;20104;-75
2022/11/15 10:31:33;;;;;;;12.30;11.07;;;;;;;;;;4769815;29;20048;-74
2022/11/15 10:34:19;;;;;;;13.45;12.18;;;;;;;;;;4772640;29;20510;-73
2022/11/15 10:36:54;;;;;;;12.10;10.93;;;;;;;;;;4791809;29;20421;-73
2022/11/15 10:39:21;;;;;;;14.75;13.18;;;;;;;;;;4774461;29;20058;-73
2022/11/15 10:41:48;;;;;;;17.02;14.40;;;;;;;;;;4777715;29;20054;-74
2022/11/15 10:44:19;;;;;;;15.07;13.57;;;;;;;;;;4776903;29;20428;-73
2022/11/15 10:47:04;;;;;;;13.68;12.35;;;;;;;;;;4763729;30;20043;-74
2022/11/15 10:49:33;;;;;;;14.95;12.40;;;;;;;;;;4764462;30;20058;-74
2022/11/15 10:52:03;;;;;;;21.92;13.57;;;;;;;;;;4763139;30;20101;-74
2022/11/15 10:54:35;;;;;;;16.45;14.77;;;;;;;;;;4763785;30;20056;-75
2022/11/15 10:57:02;;;;;;;;;;;;;;;;;;4765307;30;20152;-74
2022/11/15 10:59:34;;;;;;;14.02;12.07;;;;;;;;;;4763937;30;19930;-74
2022/11/15 11:02:24;;;;;;;18.23;12.98;;;;;;;;;;4763959;30;20054;-74
2022/11/15 11:04:51;;;;;;;19.50;14.25;;;;;;;;;;4764737;30;20054;-74
2022/11/15 11:07:26;;;;;;;18.27;16.10;;;;;;;;;;4763350;30;20542;-74
2022/11/15 11:10:17;;;;;;;15.10;13.63;;;;;;;;;;4764996;30;20047;-73
2022/11/15 11:13:15;;;;;;;15.10;13.60;;;;;;;;;;4766889;29;20050;-73
2022/11/15 11:15:45;;;;;;;20.60;15.98;;;;;;;;;;4780309;29;20077;-74
2022/11/15 11:18:22;;;;;;;19.10;15.50;;;;;;;;;;4782054;29;20130;-74
2022/11/15 11:20:58;;;;;;;16.77;15.00;;;;;;;;;;4781814;30;20053;-74
2022/11/15 11:23:45;;;;;;;17.00;15.38;;;;;;;;;;4773158;30;20056;-74
2022/11/15 11:26:12;;;;;;;17.85;16.05;;;;;;;;;;4777821;29;20047;-74
2022/11/15 11:28:39;;;;;;;17.77;16.08;;;;;;;;;;4783564;30;20079;-74
2022/11/15 11:31:16;;;;;;;18.13;16.27;;;;;;;;;;4773699;30;20055;-72
2022/11/15 11:34:01;;;;;;;17.35;15.52;;;;;;;;;;4764194;30;20069;-73
2022/11/15 11:36:38;;;;;;;19.60;17.75;;;;;;;;;;4764128;30;20497;-74
2022/11/15 11:39:14;;;;;;;19.25;17.38;;;;;;;;;;4764087;30;20328;-74
2022/11/15 11:42:00;;;;;;;18.15;16.27;;;;;;;;;;4763611;30;20063;-74
2022/11/15 11:44:28;;;;;;;18.23;15.45;;;;;;;;;;4767362;29;20055;-74
2022/11/15 11:47:04;;;;;;;21.13;18.65;;;;;;;;;;4781187;29;20047;-73
2022/11/15 11:49:35;;;;;;;18.40;16.40;;;;;;;;;;4781698;30;20058;-74
2022/11/15 11:52:10;;;;;;;21.58;19.27;;;;;;;;;;4781304;29;20112;-74
2022/11/15 11:54:46;;;;;;;23.75;21.25;;;;;;;;;;4781729;30;20051;-74
2022/11/15 11:57:33;;;;;;;21.48;19.17;;;;;;;;;;4781525;30;20079;-74
2022/11/15 12:00:03;;;;;;;24.42;21.52;;;;;;;;;;4753929;30;20055;-73
2022/11/15 12:02:41;;;;;;;23.33;18.90;;;;;;;;;;4766700;30;20127;-74
2022/11/15 12:05:23;;;;;;;21.77;19.50;;;;;;;;;;4733542;30;20062;-74
2022/11/15 12:07:52;;;;;;;24.75;20.50;;;;;;;;;;4766657;29;20047;-74
2022/11/15 12:10:23;;;;;;;24.38;21.95;;;;;;;;;;4779884;29;20473;-74
2022/11/15 12:12:56;;;;;;;23.77;21.10;;;;;;;;;;4784026;29;20071;-74
2022/11/15 12:15:43;;;;;;;23.88;21.55;;;;;;;;;;4781228;29;20055;-74
2022/11/15 12:18:15;;;;;;;24.52;21.92;;;;;;;;;;4766673;30;20059;-74
2022/11/15 12:20:43;;;;;;;;;;;;;;;;;;4767318;30;20130;-74
2022/11/15 12:23:15;;;;;;;23.08;17.67;;;;;;;;;;4765171;30;20291;-74
2022/11/15 12:25:48;;;;;;;24.77;21.90;;;;;;;;;;4765387;30;20051;-74
2022/11/15 12:28:19;;;;;;;24.45;21.60;;;;;;;;;;4766243;30;20108;-74
2022/11/15 12:30:50;;;;;;;25.73;22.35;;;;;;;;;;4766413;30;20093;-73
2022/11/15 12:33:37;;;;;;;28.27;22.48;;;;;;;;;;4766689;30;20052;-74
2022/11/15 12:36:23;;;;;;;24.35;21.83;;;;;;;;;;4766696;30;20083;-74
2022/11/15 12:38:53;;;;;;;25.13;22.52;;;;;;;;;;4766225;30;20056;-73
2022/11/15 12:41:21;;;;;;;25.30;22.70;;;;;;;;;;4776181;30;20175;-74
2022/11/15 12:43:49;;;;;;;28.67;25.60;;;;;;;;;;4772539;30;20457;-74
2022/11/15 12:46:29;;;;;;;28.08;25.17;;;;;;;;;;4774674;29;20050;-74
2022/11/15 12:49:04;;;;;;;29.23;26.35;;;;;;;;;;4771222;29;20051;-74
2022/11/15 12:51:43;;;;;;;25.55;22.75;;;;;;;;;;4776488;29;20051;-75
2022/11/15 12:54:23;;;;;;;24.33;21.88;;;;;;;;;;4784603;29;20054;-73
2022/11/15 12:57:02;;;;;;;25.17;22.65;;;;;;;;;;4786202;30;20059;-74
2022/11/15 12:59:48;;;;;;;29.08;26.33;;;;;;;;;;4791610;29;20086;-74
2022/11/15 13:02:33;;;;;;;26.90;24.10;;;;;;;;;;4801663;29;20332;-73
2022/11/15 13:05:19;;;;;;;27.00;24.20;;;;;;;;;;4800947;29;20133;-74
2022/11/15 13:07:46;;;;;;;24.75;22.05;;;;;;;;;;4765035;30;20113;-73
2022/11/15 13:10:13;;;;;;;24.30;21.15;;;;;;;;;;4764792;30;20179;-74
2022/11/15 13:12:44;;;;;;;27.23;24.60;;;;;;;;;;4765437;30;20144;-75
2022/11/15 13:15:11;;;;;;;30.20;27.20;;;;;;;;;;4766336;30;20090;-74
2022/11/15 13:17:40;;;;;;;30.42;27.45;;;;;;;;;;4766257;30;20118;-74
2022/11/15 13:20:07;;;;;;;30.05;27.30;;;;;;;;;;4764930;30;20104;-75
2022/11/15 13:22:59;;;;;;;32.92;30.00;;;;;;;;;;4780067;30;20052;-74
2022/11/15 13:25:44;;;;;;;22.25;19.92;;;;;;;;;;4783427;29;20054;-74
2022/11/15 13:28:21;;;;;;;25.42;22.90;;;;;;;;;;4783314;29;20365;-75
2022/11/15 13:30:52;;;;;;;25.60;22.85;;;;;;;;;;4783195;30;20432;-73
2022/11/15 13:33:22;;;;;;;27.40;24.58;;;;;;;;;;4784042;30;20051;-73
2022/11/15 13:35:52;;;;;;;26.40;23.75;;;;;;;;;;4784068;30;20059;-74
2022/11/15 13:38:29;;;;;;;34.83;31.35;;;;;;;;;;4780085;29;20092;-73
2022/11/15 13:40:58;;;;;;;35.17;31.80;;;;;;;;;;4774828;29;20218;-72
2022/11/15 13:43:30;;;;;;;30.95;28.13;;;;;;;;;;4786891;29;20505;-74
2022/11/15 13:46:06;;;;;;;37.13;33.67;;;;;;;;;;4782929;30;20047;-74
2022/11/15 13:48:34;;;;;;;31.52;28.52;;;;;;;;;;4766361;30;20044;-74
2022/11/15 13:51:03;;;;;;;33.75;30.50;;;;;;;;;;4778271;29;20044;-73
2022/11/15 13:53:31;;;;;;;29.88;26.83;;;;;;;;;;4776887;29;20055;-73
2022/11/15 13:55:59;;;;;;;34.75;31.13;;;;;;;;;;4783397;29;20108;-74
2022/11/15 13:58:27;;;;;;;34.97;31.38;;;;;;;;;;4791554;29;20043;-73
2022/11/15 14:01:01;;;;;;;31.42;28.17;;;;;;;;;;4794700;29;20050;-74
2022/11/15 14:03:30;;;;;;;32.40;29.25;;;;;;;;;;4797722;29;20115;-75
2022/11/15 14:06:01;;;;;;;33.15;29.55;;;;;;;;;;4786629;29;20059;-73
2022/11/15 14:08:28;;;;;;;30.45;26.80;;;;;;;;;;4780910;30;20127;-74
2022/11/15 14:11:07;;;;;;;35.00;30.58;;;;;;;;;;4792094;29;20043;-73
2022/11/15 14:13:35;;;;;;;32.75;26.20;;;;;;;;;;4771861;29;20150;-75
2022/11/15 14:16:22;;;;;;;32.03;27.00;;;;;;;;;;4783836;29;20055;-74
2022/11/15 14:18:53;;;;;;;28.80;24.13;;;;;;;;;;4772308;29;20135;-74
2022/11/15 14:21:20;;;;;;;31.27;25.27;;;;;;;;;;4775088;29;20058;-74
2022/11/15 14:23:48;;;;;;;34.65;27.27;;;;;;;;;;4774584;29;20074;-74
2022/11/15 14:26:28;;;;;;;31.95;27.50;;;;;;;;;;4775921;29;20569;-75
2022/11/15 14:28:56;;;;;;;26.35;21.48;;;;;;;;;;4773917;30;20044;-74
2022/11/15 14:31:23;;;;;;;31.52;27.13;;;;;;;;;;4775172;30;20064;-74
2022/11/15 14:33:51;;;;;;;33.05;28.23;;;;;;;;;;4774416;29;20211;-74
2022/11/15 14:36:20;;;;;;;30.88;26.38;;;;;;;;;;4763831;29;20070;-74
2022/11/15 14:38:47;;;;;;;29.98;25.80;;;;;;;;;;4789223;29;20047;-73
2022/11/15 14:41:18;;;;;;;28.95;25.88;;;;;;;;;;4782683;29;20086;-74
2022/11/15 14:43:45;;;;;;;26.23;23.52;;;;;;;;;;4782104;29;20475;-74
2022/11/15 14:46:12;;;;;;;30.33;25.17;;;;;;;;;;4794698;29;20039;-74
2022/11/15 14:48:40;;;;;;;26.95;24.08;;;;;;;;;;4776154;29;20059;-75
2022/11/15 14:51:15;;;;;;;27.15;23.98;;;;;;;;;;4775852;29;20047;-75
2022/11/15 14:53:42;;;;;;;25.35;22.17;;;;;;;;;;4764027;29;20051;-75
2022/11/15 14:56:10;;;;;;;27.95;23.98;;;;;;;;;;4787590;29;20048;-76
2022/11/15 14:58:38;;;;;;;27.13;23.40;;;;;;;;;;4805393;29;20055;-73
2022/11/15 15:01:18;;;;;;;26.80;23.38;;;;;;;;;;4783931;29;20051;-75
2022/11/15 15:03:46;;;;;;;27.98;23.60;;;;;;;;;;4786825;29;20055;-75
2022/11/15 15:06:13;;;;;;;28.50;24.13;;;;;;;;;;4764106;29;20051;-74
2022/11/15 15:08:45;;;;;;;26.60;23.75;;;;;;;;;;4790531;29;20046;-78
2022/11/15 15:11:31;;;;;;;29.10;25.38;;;;;;;;;;4787959;29;20055;-74
2022/11/15 15:14:00;;;;;;;28.50;24.35;;;;;;;;;;4794634;29;20046;-75
2022/11/15 15:16:34;;;;;;;32.47;28.27;;;;;;;;;;4787561;29;20563;-72
2022/11/15 15:19:01;;;;;;;36.80;26.40;;;;;;;;;;4770308;29;20059;-73
2022/11/15 15:21:30;;;;;;;44.13;31.40;;;;;;;;;;4787743;29;20050;-73
2022/11/15 15:24:04;;;;;;;38.22;29.10;;;;;;;;;;4780099;29;20043;-74
2022/11/15 15:26:36;;;;;;;53.15;36.28;;;;;;;;;;4784944;29;20112;-73
2022/11/15 15:29:03;;;;;;;;;;;;;;;;;;4794265;29;20187;-72
2022/11/15 15:31:32;;;;;;;38.55;25.48;;;;;;;;;;4777653;29;19934;-74
2022/11/15 15:34:00;;;;;;;37.65;26.80;;;;;;;;;;4771668;29;20078;-73
2022/11/15 15:36:27;;;;;;;37.08;29.17;;;;;;;;;;4774101;29;20066;-73
2022/11/15 15:38:54;;;;;;;33.58;26.27;;;;;;;;;;4781166;29;20048;-74
2022/11/15 15:41:22;;;;;;;33.42;27.30;;;;;;;;;;4773530;29;20135;-72
2022/11/15 15:43:49;;;;;;;30.80;24.05;;;;;;;;;;4770478;29;20054;-73
2022/11/15 15:46:17;;;;;;;30.17;25.70;;;;;;;;;;4778160;29;20046;-73
2022/11/15 15:48:45;;;;;;;27.02;22.83;;;;;;;;;;4775168;29;20058;-72
2022/11/15 15:51:13;;;;;;;30.98;26.27;;;;;;;;;;4776007;29;20055;-74
2022/11/15 15:53:46;;;;;;;34.53;26.67;;;;;;;;;;4764910;30;20681;-74
2022/11/15 15:56:14;;;;;;;33.42;25.65;;;;;;;;;;4777311;29;20059;-74
2022/11/15 15:58:41;;;;;;;27.90;24.10;;;;;;;;;;4784671;29;20071;-73
2022/11/15 16:01:08;;;;;;;32.65;26.38;;;;;;;;;;4771688;29;20062;-75
2022/11/15 16:03:36;;;;;;;28.13;23.40;;;;;;;;;;4783295;29;20059;-75
2022/11/15 16:06:04;;;;;;;26.75;23.88;;;;;;;;;;4785064;29;20097;-74